createdAt,value
2017-09-15T00:00:44.815Z,52.70
2017-09-15T00:03:12.474Z,52.70
2017-09-15T00:05:39.976Z,52.80
2017-09-15T00:08:07.574Z,52.80
2017-09-15T00:10:35.247Z,52.80
2017-09-15T00:13:02.892Z,52.80
2017-09-15T00:15:30.388Z,52.80
2017-09-15T00:17:57.883Z,52.70
2017-09-15T00:20:26.275Z,52.70
2017-09-15T00:22:53.939Z,52.70
2017-09-15T00:25:21.606Z,52.60
2017-09-15T00:27:49.103Z,52.70
2017-09-15T00:30:16.595Z,52.70
2017-09-15T00:32:44.864Z,52.80
2017-09-15T00:35:13.234Z,52.80
2017-09-15T00:37:40.912Z,52.70
2017-09-15T00:40:08.571Z,52.80
2017-09-15T00:42:36.068Z,52.80
2017-09-15T00:45:03.563Z,52.80
2017-09-15T00:47:31.832Z,52.70
2017-09-15T00:50:00.243Z,52.70
2017-09-15T00:52:27.898Z,52.70
2017-09-15T00:54:55.387Z,52.70
2017-09-15T00:57:22.999Z,52.70
2017-09-15T00:59:51.307Z,52.70
2017-09-15T01:02:18.815Z,52.70
2017-09-15T01:04:46.382Z,52.70
2017-09-15T01:07:14.039Z,52.60
2017-09-15T01:09:41.704Z,52.70
2017-09-15T01:12:09.316Z,52.80
2017-09-15T01:14:37.582Z,52.70
2017-09-15T01:17:05.086Z,52.70
2017-09-15T01:19:32.742Z,52.60
2017-09-15T01:22:00.239Z,52.80
2017-09-15T01:24:27.839Z,52.80
2017-09-15T01:26:55.515Z,52.70
2017-09-15T01:29:23.176Z,52.60
2017-09-15T01:31:50.836Z,52.60
2017-09-15T01:34:18.491Z,52.60
2017-09-15T01:36:46.043Z,52.60
2017-09-15T01:39:13.540Z,52.60
2017-09-15T01:41:41.039Z,52.60
2017-09-15T01:44:08.535Z,52.70
2017-09-15T01:46:36.026Z,52.70
2017-09-15T01:49:04.443Z,52.60
2017-09-15T01:51:32.100Z,52.60
2017-09-15T01:53:59.759Z,52.60
2017-09-15T01:56:27.419Z,52.70
2017-09-15T01:58:54.915Z,52.80
2017-09-15T02:01:22.527Z,52.80
2017-09-15T02:03:50.186Z,52.70
2017-09-15T02:06:17.678Z,52.70
2017-09-15T02:08:45.174Z,52.70
2017-09-15T02:11:13.436Z,52.70
2017-09-15T02:13:41.824Z,52.90
2017-09-15T02:16:09.511Z,52.70
2017-09-15T02:18:37.007Z,52.70
2017-09-15T02:21:04.502Z,52.60
2017-09-15T02:23:32.892Z,52.60
2017-09-15T02:26:00.757Z,52.60
2017-09-15T02:28:28.410Z,52.60
2017-09-15T02:30:55.903Z,52.70
2017-09-15T02:33:23.525Z,52.70
2017-09-15T02:35:51.199Z,52.70
2017-09-15T02:38:18.700Z,52.70
2017-09-15T02:40:47.087Z,52.60
2017-09-15T02:43:14.588Z,52.60
2017-09-15T02:45:42.083Z,52.60
2017-09-15T02:48:09.583Z,52.60
2017-09-15T02:50:37.135Z,52.60
2017-09-15T02:53:04.630Z,52.60
2017-09-15T02:55:32.246Z,52.60
2017-09-15T02:57:59.907Z,52.50
2017-09-15T03:00:27.408Z,52.50
2017-09-15T03:02:55.015Z,52.50
2017-09-15T03:05:22.663Z,52.50
2017-09-15T03:07:50.159Z,52.70
2017-09-15T03:10:17.786Z,52.60
2017-09-15T03:12:45.275Z,52.60
2017-09-15T03:15:12.898Z,52.70
2017-09-15T03:17:40.392Z,52.70
2017-09-15T03:20:08.014Z,52.70
2017-09-15T03:22:35.506Z,52.80
2017-09-15T03:25:03.003Z,52.80
2017-09-15T03:27:31.394Z,52.70
2017-09-15T03:29:59.056Z,52.70
2017-09-15T03:32:26.714Z,52.70
2017-09-15T03:34:54.375Z,52.70
2017-09-15T03:37:22.236Z,52.70
2017-09-15T03:39:49.739Z,52.80
2017-09-15T03:42:17.233Z,52.80
2017-09-15T03:44:45.491Z,52.80
2017-09-15T03:47:13.747Z,52.80
2017-09-15T03:49:41.351Z,52.80
2017-09-15T03:52:08.842Z,52.80
2017-09-15T03:54:36.463Z,52.80
2017-09-15T03:57:03.956Z,52.80
2017-09-15T03:59:31.575Z,52.70
2017-09-15T04:01:59.256Z,52.80
2017-09-15T04:04:26.766Z,52.80
2017-09-15T04:06:55.032Z,52.80
2017-09-15T04:09:23.299Z,52.80
2017-09-15T04:11:51.555Z,52.70
2017-09-15T04:14:19.164Z,52.70
2017-09-15T04:16:46.660Z,52.80
2017-09-15T04:19:14.156Z,52.80
2017-09-15T04:21:42.415Z,52.80
2017-09-15T04:24:10.823Z,52.90
2017-09-15T04:26:38.478Z,52.80
2017-09-15T04:29:05.970Z,52.80
2017-09-15T04:31:33.590Z,52.80
2017-09-15T04:34:01.251Z,52.70
2017-09-15T04:36:28.748Z,52.70
2017-09-15T04:38:56.364Z,52.70
2017-09-15T04:41:24.020Z,52.70
2017-09-15T04:43:51.697Z,52.70
2017-09-15T04:46:19.340Z,52.70
2017-09-15T04:48:46.995Z,52.70
2017-09-15T04:51:14.486Z,52.80
2017-09-15T04:53:42.095Z,52.80
2017-09-15T04:56:09.770Z,52.70
2017-09-15T04:58:37.263Z,52.70
2017-09-15T05:01:04.759Z,52.70
2017-09-15T05:03:33.155Z,52.70
2017-09-15T05:06:00.654Z,52.70
2017-09-15T05:08:28.148Z,52.70
2017-09-15T05:10:56.539Z,52.80
2017-09-15T05:13:24.031Z,52.80
2017-09-15T05:15:51.652Z,52.80
2017-09-15T05:18:19.312Z,52.70
2017-09-15T05:20:46.806Z,52.70
2017-09-15T05:23:14.303Z,52.70
2017-09-15T05:25:42.696Z,52.70
2017-09-15T05:28:10.195Z,52.70
2017-09-15T05:30:37.806Z,52.70
2017-09-15T05:33:05.303Z,52.80
2017-09-15T05:35:32.895Z,52.70
2017-09-15T05:38:00.579Z,52.70
2017-09-15T05:40:28.075Z,52.80
2017-09-15T05:42:55.692Z,52.80
2017-09-15T05:45:23.199Z,52.80
2017-09-15T05:47:50.691Z,52.70
2017-09-15T05:50:19.075Z,53.30
2017-09-15T05:52:46.567Z,52.80
2017-09-15T05:55:14.188Z,52.70
2017-09-15T05:57:41.683Z,52.70
2017-09-15T06:00:09.185Z,52.60
2017-09-15T06:02:37.570Z,52.70
2017-09-15T06:05:05.235Z,52.70
2017-09-15T06:07:32.891Z,52.70
2017-09-15T06:10:00.546Z,52.80
2017-09-15T06:12:28.043Z,52.80
2017-09-15T06:14:55.543Z,52.70
2017-09-15T06:17:23.935Z,52.70
2017-09-15T06:19:51.442Z,53.30
2017-09-15T06:22:19.046Z,52.80
2017-09-15T06:24:46.535Z,52.90
2017-09-15T06:27:14.160Z,52.80
2017-09-15T06:29:41.679Z,52.80
2017-09-15T06:32:09.306Z,52.90
2017-09-15T06:34:36.798Z,52.90
2017-09-15T06:37:05.082Z,53.00
2017-09-15T06:39:33.478Z,53.10
2017-09-15T06:42:00.979Z,53.00
2017-09-15T06:44:28.497Z,53.10
2017-09-15T06:46:56.249Z,53.00
2017-09-15T06:49:23.866Z,53.60
2017-09-15T06:51:52.179Z,53.10
2017-09-15T06:54:19.691Z,53.10
2017-09-15T06:56:47.186Z,53.10
2017-09-15T06:59:14.699Z,53.20
2017-09-15T07:01:42.191Z,53.20
2017-09-15T07:04:09.796Z,53.20
2017-09-15T07:06:37.294Z,53.20
2017-09-15T07:09:05.563Z,53.10
2017-09-15T07:11:33.844Z,53.20
2017-09-15T07:14:02.248Z,53.10
2017-09-15T07:16:29.771Z,53.10
2017-09-15T07:18:58.039Z,53.20
2017-09-15T07:21:26.327Z,53.10
2017-09-15T07:23:53.820Z,53.10
2017-09-15T07:26:21.342Z,53.10
2017-09-15T07:28:48.842Z,53.10
2017-09-15T07:31:16.439Z,53.20
2017-09-15T07:33:43.930Z,53.10
2017-09-15T07:36:11.570Z,53.10
2017-09-15T07:38:39.087Z,53.20
2017-09-15T07:41:07.498Z,53.20
2017-09-15T07:43:35.163Z,53.10
2017-09-15T07:46:02.675Z,53.10
2017-09-15T07:48:30.198Z,53.10
2017-09-15T07:50:57.739Z,53.10
2017-09-15T07:53:25.259Z,53.10
2017-09-15T07:55:53.671Z,53.20
2017-09-15T07:58:21.195Z,53.20
2017-09-15T08:00:49.588Z,53.30
2017-09-15T08:03:17.130Z,53.20
2017-09-15T08:05:45.394Z,53.30
2017-09-15T08:08:13.650Z,53.30
2017-09-15T08:10:42.071Z,53.30
2017-09-15T08:13:09.567Z,53.30
2017-09-15T08:15:37.086Z,53.30
2017-09-15T08:18:04.851Z,53.30
2017-09-15T08:20:32.367Z,53.30
2017-09-15T08:23:00.683Z,53.30
2017-09-15T08:25:28.254Z,53.20
2017-09-15T08:27:55.771Z,53.30
2017-09-15T08:30:23.367Z,53.20
2017-09-15T08:32:50.991Z,53.20
2017-09-15T08:35:18.647Z,53.10
2017-09-15T08:37:46.235Z,53.00
2017-09-15T08:40:13.811Z,53.10
2017-09-15T08:42:41.324Z,53.10
2017-09-15T08:45:08.874Z,53.30
2017-09-15T08:47:36.379Z,53.30
2017-09-15T08:50:03.879Z,53.40
2017-09-15T08:52:31.404Z,53.30
2017-09-15T08:54:58.920Z,53.40
2017-09-15T08:57:26.559Z,53.50
2017-09-15T08:59:54.211Z,53.40
2017-09-15T09:02:21.886Z,53.40
2017-09-15T09:04:49.387Z,53.40
2017-09-15T09:07:17.662Z,53.30
2017-09-15T09:09:45.924Z,53.40
2017-09-15T09:12:13.527Z,53.40
2017-09-15T09:14:41.023Z,53.30
2017-09-15T09:17:08.643Z,53.30
2017-09-15T09:19:36.295Z,53.30
2017-09-15T09:22:03.959Z,53.30
2017-09-15T09:24:31.617Z,53.40
2017-09-15T09:26:59.140Z,53.50
2017-09-15T09:29:27.399Z,54.10
2017-09-15T09:31:54.911Z,53.50
2017-09-15T09:34:22.400Z,53.40
2017-09-15T09:36:50.223Z,53.50
2017-09-15T09:39:17.781Z,53.50
2017-09-15T09:41:45.296Z,53.50
2017-09-15T09:44:13.091Z,53.50
2017-09-15T09:46:40.746Z,53.50
2017-09-15T09:49:08.248Z,53.60
2017-09-15T09:51:35.759Z,53.50
2017-09-15T09:54:03.331Z,53.50
2017-09-15T09:56:30.991Z,53.50
2017-09-15T09:58:58.783Z,53.40
2017-09-15T10:01:26.495Z,53.40
2017-09-15T10:03:54.015Z,53.60
2017-09-15T10:06:22.427Z,53.60
2017-09-15T10:08:50.056Z,53.60
2017-09-15T10:11:17.568Z,53.50
2017-09-15T10:13:45.075Z,53.50
2017-09-15T10:16:13.355Z,53.50
2017-09-15T10:18:41.616Z,53.50
2017-09-15T10:21:09.907Z,53.60
2017-09-15T10:23:37.670Z,53.50
2017-09-15T10:26:05.331Z,53.50
2017-09-15T10:28:32.828Z,53.40
2017-09-15T10:31:00.347Z,53.50
2017-09-15T10:33:27.839Z,53.50
2017-09-15T10:35:55.365Z,53.40
2017-09-15T10:38:23.013Z,53.50
2017-09-15T10:40:50.678Z,53.40
2017-09-15T10:43:18.355Z,53.40
2017-09-15T10:45:45.844Z,53.50
2017-09-15T10:48:13.427Z,53.50
2017-09-15T10:50:41.002Z,53.40
2017-09-15T10:53:08.782Z,53.50
2017-09-15T10:55:36.283Z,53.60
2017-09-15T10:58:09.451Z,53.50
2017-09-15T11:00:37.059Z,53.60
2017-09-15T11:03:04.583Z,53.50
2017-09-15T11:05:33.003Z,54.10
2017-09-15T11:08:00.681Z,53.50
2017-09-15T11:10:28.194Z,53.50
2017-09-15T11:12:55.747Z,53.50
2017-09-15T11:15:23.423Z,53.50
2017-09-15T11:17:50.967Z,53.60
2017-09-15T11:20:19.223Z,53.50
2017-09-15T11:22:47.503Z,53.60
2017-09-15T11:25:15.910Z,53.60
2017-09-15T11:27:43.429Z,53.60
2017-09-15T11:30:11.690Z,53.60
2017-09-15T11:32:39.979Z,53.60
2017-09-15T11:35:08.256Z,53.50
2017-09-15T11:37:36.539Z,53.60
2017-09-15T11:40:04.035Z,53.50
2017-09-15T11:42:31.546Z,53.60
2017-09-15T11:44:59.043Z,53.60
2017-09-15T11:47:26.671Z,53.60
2017-09-15T11:49:54.276Z,53.60
2017-09-15T11:52:21.799Z,53.60
2017-09-15T11:54:49.291Z,53.60
2017-09-15T11:57:17.566Z,53.60
2017-09-15T11:59:45.090Z,53.60
2017-09-15T12:02:12.603Z,53.60
2017-09-15T12:04:40.280Z,53.70
2017-09-15T12:07:07.795Z,53.50
2017-09-15T12:09:35.292Z,53.50
2017-09-15T12:12:02.843Z,53.40
2017-09-15T12:14:30.337Z,53.50
2017-09-15T12:16:57.866Z,53.60
2017-09-15T12:19:25.426Z,53.60
2017-09-15T12:21:53.092Z,53.60
2017-09-15T12:24:20.583Z,53.50
2017-09-15T12:26:48.186Z,53.50
2017-09-15T12:29:15.683Z,53.60
2017-09-15T12:31:43.203Z,53.60
2017-09-15T12:34:10.709Z,53.70
2017-09-15T12:36:38.239Z,53.70
2017-09-15T12:39:05.735Z,53.60
2017-09-15T12:41:34.130Z,53.70
2017-09-15T12:44:01.635Z,53.60
2017-09-15T12:46:29.127Z,53.60
2017-09-15T12:48:57.403Z,53.70
2017-09-15T12:51:25.677Z,53.60
2017-09-15T12:53:53.959Z,53.50
2017-09-15T12:56:21.518Z,53.50
2017-09-15T12:58:49.014Z,53.60
2017-09-15T13:01:16.632Z,53.60
2017-09-15T13:03:44.135Z,53.60
2017-09-15T13:06:11.755Z,53.70
2017-09-15T13:08:39.343Z,53.60
2017-09-15T13:11:06.841Z,53.60
2017-09-15T13:13:34.363Z,53.60
2017-09-15T13:16:01.991Z,53.50
2017-09-15T13:18:29.519Z,53.50
2017-09-15T13:20:57.019Z,53.50
2017-09-15T13:23:24.535Z,53.50
2017-09-15T13:25:52.027Z,53.60
2017-09-15T13:28:19.658Z,53.50
2017-09-15T13:30:47.156Z,53.60
2017-09-15T13:33:14.776Z,53.60
2017-09-15T13:35:42.276Z,53.50
2017-09-15T13:38:10.560Z,53.60
2017-09-15T13:40:38.828Z,54.10
2017-09-15T13:43:07.112Z,54.10
2017-09-15T13:45:35.370Z,53.60
2017-09-15T13:48:03.659Z,53.50
2017-09-15T13:50:32.077Z,53.50
2017-09-15T13:52:59.603Z,53.50
2017-09-15T13:55:27.166Z,53.60
2017-09-15T13:57:54.846Z,53.60
2017-09-15T14:00:22.366Z,53.60
2017-09-15T14:02:50.632Z,53.60
2017-09-15T14:05:18.911Z,53.60
2017-09-15T14:07:47.319Z,53.60
2017-09-15T14:10:15.000Z,53.50
2017-09-15T14:12:42.624Z,53.50
2017-09-15T14:15:10.255Z,53.40
2017-09-15T14:17:37.935Z,53.50
2017-09-15T14:20:05.452Z,53.50
2017-09-15T14:22:32.947Z,53.50
2017-09-15T14:25:00.523Z,53.50
2017-09-15T14:27:28.173Z,53.50
2017-09-15T14:29:55.841Z,53.60
2017-09-15T14:32:23.339Z,53.50
2017-09-15T14:34:51.752Z,53.60
2017-09-15T14:37:19.407Z,53.50
2017-09-15T14:39:47.092Z,53.50
2017-09-15T14:42:14.739Z,53.50
2017-09-15T14:44:42.388Z,53.50
2017-09-15T14:47:10.007Z,53.50
2017-09-15T14:49:37.499Z,53.60
2017-09-15T14:52:05.036Z,53.60
2017-09-15T14:54:33.305Z,53.60
2017-09-15T14:57:01.703Z,53.50
2017-09-15T14:59:29.203Z,53.50
2017-09-15T15:01:56.718Z,53.50
2017-09-15T15:04:24.206Z,53.40
2017-09-15T15:06:51.773Z,53.40
2017-09-15T15:09:19.397Z,53.50
2017-09-15T15:11:47.039Z,53.40
2017-09-15T15:14:15.106Z,53.40
2017-09-15T15:16:42.771Z,53.40
2017-09-15T15:19:10.327Z,53.40
2017-09-15T15:21:37.823Z,53.40
2017-09-15T15:24:05.383Z,53.50
2017-09-15T15:26:32.875Z,53.60
2017-09-15T15:29:01.159Z,53.50
2017-09-15T15:31:29.641Z,53.50
2017-09-15T15:33:57.299Z,53.50
2017-09-15T15:36:25.082Z,53.50
2017-09-15T15:38:52.719Z,53.50
2017-09-15T15:41:21.211Z,53.50
2017-09-15T15:43:48.851Z,53.50
2017-09-15T15:46:16.343Z,53.50
2017-09-15T15:48:43.849Z,53.50
2017-09-15T15:51:11.636Z,53.50
2017-09-15T15:53:39.135Z,53.50
2017-09-15T15:56:06.657Z,53.50
2017-09-15T15:58:34.191Z,53.40
2017-09-15T16:01:01.711Z,53.40
2017-09-15T16:03:29.203Z,53.50
2017-09-15T16:05:56.787Z,53.40
2017-09-15T16:08:24.288Z,54.00
2017-09-15T16:10:52.553Z,53.50
2017-09-15T16:13:20.184Z,53.30
2017-09-15T16:15:47.683Z,53.40
2017-09-15T16:18:15.962Z,53.40
2017-09-15T16:20:44.342Z,53.20
2017-09-15T16:23:11.892Z,53.20
2017-09-15T16:25:40.279Z,53.40
2017-09-15T16:28:07.793Z,53.30
2017-09-15T16:30:35.291Z,53.30
2017-09-15T16:33:02.825Z,53.40
2017-09-15T16:35:30.327Z,53.40
2017-09-15T16:38:03.593Z,53.40
2017-09-15T16:40:36.791Z,53.40
2017-09-15T16:43:10.064Z,53.40
2017-09-15T16:45:43.282Z,53.40
2017-09-15T16:48:16.483Z,53.40
2017-09-15T16:50:43.983Z,53.40
2017-09-15T16:53:12.247Z,53.40
2017-09-15T16:55:40.519Z,53.40
2017-09-15T16:58:08.795Z,53.50
2017-09-15T17:00:37.075Z,53.50
2017-09-15T17:03:05.351Z,53.40
2017-09-15T17:05:33.626Z,53.30
2017-09-15T17:08:01.892Z,53.40
2017-09-15T17:10:30.174Z,53.40
2017-09-15T17:12:58.442Z,53.30
2017-09-15T17:15:26.732Z,53.30
2017-09-15T17:17:54.495Z,53.30
2017-09-15T17:20:22.023Z,53.40
2017-09-15T17:22:50.290Z,53.40
2017-09-15T17:25:17.879Z,53.40
2017-09-15T17:27:45.375Z,53.50
2017-09-15T17:30:13.003Z,53.50
2017-09-15T17:32:40.499Z,53.50
2017-09-15T17:35:08.100Z,53.40
2017-09-15T17:37:35.763Z,53.50
2017-09-15T17:40:03.275Z,53.40
2017-09-15T17:42:30.804Z,53.40
2017-09-15T17:44:58.311Z,53.50
2017-09-15T17:47:25.832Z,53.50
2017-09-15T17:49:53.322Z,53.40
2017-09-15T17:52:21.723Z,53.30
2017-09-15T17:54:49.367Z,53.30
2017-09-15T17:57:16.978Z,53.30
2017-09-15T17:59:44.467Z,53.40
2017-09-15T18:02:11.977Z,53.20
2017-09-15T18:04:39.483Z,53.40
2017-09-15T18:07:07.052Z,53.50
2017-09-15T18:09:34.551Z,53.50
2017-09-15T18:12:02.163Z,53.40
2017-09-15T18:14:29.864Z,53.30
2017-09-15T18:16:57.492Z,53.40
2017-09-15T18:19:25.150Z,53.40
2017-09-15T18:21:52.790Z,53.50
2017-09-15T18:24:20.315Z,53.50
2017-09-15T18:26:47.907Z,53.40
2017-09-15T18:29:15.443Z,53.30
2017-09-15T18:31:43.714Z,53.40
2017-09-15T18:34:11.978Z,53.30
2017-09-15T18:36:39.483Z,53.30
2017-09-15T18:39:07.043Z,53.40
2017-09-15T18:41:34.537Z,53.40
2017-09-15T18:44:02.039Z,53.30
2017-09-15T18:46:29.683Z,54.10
2017-09-15T18:48:57.309Z,53.40
2017-09-15T18:51:24.956Z,53.50
2017-09-15T18:53:52.459Z,53.40
2017-09-15T18:56:20.065Z,53.40
2017-09-15T18:58:47.598Z,53.40
2017-09-15T19:01:15.132Z,53.30
2017-09-15T19:03:42.773Z,53.30
2017-09-15T19:06:10.263Z,53.40
2017-09-15T19:08:38.002Z,53.40
2017-09-15T19:11:05.763Z,53.40
2017-09-15T19:13:33.422Z,53.30
2017-09-15T19:16:00.915Z,53.50
2017-09-15T19:18:28.407Z,53.30
2017-09-15T19:20:56.667Z,53.30
2017-09-15T19:23:24.159Z,53.30
2017-09-15T19:25:51.922Z,53.80
2017-09-15T19:28:19.613Z,53.30
2017-09-15T19:30:47.153Z,53.30
2017-09-15T19:33:14.746Z,53.30
2017-09-15T19:35:42.267Z,53.30
2017-09-15T19:38:10.057Z,53.40
2017-09-15T19:40:37.554Z,53.30
2017-09-15T19:43:05.811Z,53.40
2017-09-15T19:45:34.082Z,53.40
2017-09-15T19:48:02.492Z,53.90
2017-09-15T19:50:29.982Z,53.20
2017-09-15T19:52:57.637Z,53.30
2017-09-15T19:55:25.267Z,53.30
2017-09-15T19:57:52.805Z,53.30
2017-09-15T20:00:20.403Z,53.30
2017-09-15T20:02:47.899Z,53.30
2017-09-15T20:05:16.194Z,53.30
2017-09-15T20:07:43.754Z,53.30
2017-09-15T20:10:11.251Z,53.30
2017-09-15T20:12:38.780Z,53.30
2017-09-15T20:15:06.518Z,53.30
2017-09-15T20:17:34.282Z,53.30
2017-09-15T20:20:01.883Z,53.30
2017-09-15T20:22:29.413Z,53.30
2017-09-15T20:24:56.915Z,53.30
2017-09-15T20:27:25.484Z,53.30
2017-09-15T20:29:53.097Z,53.30
2017-09-15T20:32:20.586Z,53.30
2017-09-15T20:34:48.075Z,53.20
2017-09-15T20:37:16.387Z,53.30
2017-09-15T20:39:43.941Z,53.30
2017-09-15T20:42:11.440Z,53.30
2017-09-15T20:44:38.935Z,53.30
2017-09-15T20:47:06.509Z,53.20
2017-09-15T20:49:34.028Z,53.20
2017-09-15T20:52:02.300Z,53.20
2017-09-15T20:54:30.699Z,53.30
2017-09-15T20:56:58.370Z,53.20
2017-09-15T20:59:25.932Z,53.30
2017-09-15T21:01:53.478Z,53.20
2017-09-15T21:04:21.006Z,53.20
2017-09-15T21:06:49.273Z,53.20
2017-09-15T21:09:17.553Z,53.20
2017-09-15T21:11:45.853Z,53.30
2017-09-15T21:14:13.399Z,53.20
2017-09-15T21:16:40.912Z,53.20
2017-09-15T21:19:08.512Z,53.20
2017-09-15T21:21:36.168Z,53.20
2017-09-15T21:24:03.664Z,53.20
2017-09-15T21:26:31.175Z,53.20
2017-09-15T21:28:58.831Z,53.10
2017-09-15T21:31:26.342Z,53.10
2017-09-15T21:33:53.871Z,53.20
2017-09-15T21:36:21.503Z,53.20
2017-09-15T21:38:48.999Z,53.20
2017-09-15T21:41:16.615Z,53.20
2017-09-15T21:43:44.275Z,53.20
2017-09-15T21:46:11.770Z,53.30
2017-09-15T21:48:39.318Z,53.20
2017-09-15T21:51:06.819Z,53.30
2017-09-15T21:53:34.330Z,53.20
2017-09-15T21:56:01.823Z,53.20
2017-09-15T21:58:29.335Z,53.20
2017-09-15T22:00:56.883Z,53.80
2017-09-15T22:03:24.399Z,53.20
2017-09-15T22:05:52.655Z,53.30
2017-09-15T22:08:20.248Z,53.20
2017-09-15T22:10:47.862Z,53.20
2017-09-15T22:13:15.565Z,53.10
2017-09-15T22:15:43.223Z,53.10
2017-09-15T22:18:10.734Z,53.20
2017-09-15T22:20:38.236Z,53.10
2017-09-15T22:23:05.740Z,53.10
2017-09-15T22:25:33.446Z,53.20
2017-09-15T22:28:00.939Z,53.20
2017-09-15T22:30:28.560Z,53.20
2017-09-15T22:32:56.060Z,53.20
2017-09-15T22:35:23.682Z,53.10
2017-09-15T22:37:51.180Z,53.10
2017-09-15T22:40:19.015Z,53.10
2017-09-15T22:42:46.507Z,53.10
2017-09-15T22:45:14.024Z,53.10
2017-09-15T22:47:41.763Z,53.10
2017-09-15T22:50:10.143Z,53.00
2017-09-15T22:52:37.895Z,53.00
2017-09-15T22:55:05.400Z,53.00
2017-09-15T22:57:32.895Z,53.00
2017-09-15T23:00:01.160Z,53.00
2017-09-15T23:02:29.561Z,53.00
2017-09-15T23:04:57.059Z,53.00
2017-09-15T23:07:24.583Z,52.90
2017-09-15T23:09:52.143Z,53.00
2017-09-15T23:12:19.764Z,52.80
2017-09-15T23:14:47.440Z,52.80
2017-09-15T23:17:15.098Z,52.80
2017-09-15T23:19:42.599Z,52.80
2017-09-15T23:22:10.120Z,52.90
2017-09-15T23:24:37.662Z,52.90
2017-09-15T23:27:05.177Z,52.90
2017-09-15T23:29:32.780Z,52.80
2017-09-15T23:32:00.487Z,52.80
2017-09-15T23:34:28.723Z,52.80
2017-09-15T23:36:56.367Z,52.90
2017-09-15T23:39:23.875Z,52.80
2017-09-15T23:41:51.479Z,52.90
2017-09-15T23:44:19.135Z,52.80
2017-09-15T23:46:46.631Z,52.90
2017-09-15T23:49:14.147Z,52.90
2017-09-15T23:51:41.698Z,52.90
2017-09-15T23:54:09.360Z,53.00
2017-09-15T23:56:37.018Z,52.90
2017-09-15T23:59:04.538Z,52.90
